sensor_id;sensor_type;location;lat;lon;timestamp;P1;durP1;ratioP1;P2;durP2;ratioP2
10052;SDS011;52418;53.134;8.236;2023-02-15T00:02:21;1.20;;;1.20;;
10052;SDS011;52418;53.134;8.236;2023-02-15T00:04:46;1.20;;;1.20;;
10052;SDS011;52418;53.134;8.236;2023-02-15T00:07:15;1.20;;;1.20;;
10052;SDS011;52418;53.134;8.236;2023-02-15T00:09:41;1.20;;;1.20;;
10052;SDS011;52418;53.134;8.236;2023-02-15T00:12:06;1.30;;;1.30;;
10052;SDS011;52418;53.134;8.236;2023-02-15T00:14:31;1.20;;;1.20;;
10052;SDS011;52418;53.134;8.236;2023-02-15T00:16:56;1.20;;;1.20;;
10052;SDS011;52418;53.134;8.236;2023-02-15T00:19:24;1.17;;;1.17;;
10052;SDS011;52418;53.134;8.236;2023-02-15T00:21:49;1.20;;;1.20;;
10052;SDS011;52418;53.134;8.236;2023-02-15T00:24:15;1.17;;;1.17;;
10052;SDS011;52418;53.134;8.236;2023-02-15T00:26:42;1.23;;;1.23;;
10052;SDS011;52418;53.134;8.236;2023-02-15T00:29:08;1.27;;;1.27;;
10052;SDS011;52418;53.134;8.236;2023-02-15T00:31:33;1.30;;;1.30;;
10052;SDS011;52418;53.134;8.236;2023-02-15T00:36:27;1.20;;;1.20;;
10052;SDS011;52418;53.134;8.236;2023-02-15T00:38:52;1.23;;;1.23;;
10052;SDS011;52418;53.134;8.236;2023-02-15T00:41:17;1.17;;;1.17;;
10052;SDS011;52418;53.134;8.236;2023-02-15T00:43:42;1.20;;;1.20;;
10052;SDS011;52418;53.134;8.236;2023-02-15T00:46:07;1.20;;;1.20;;
10052;SDS011;52418;53.134;8.236;2023-02-15T00:48:34;1.33;;;1.30;;
10052;SDS011;52418;53.134;8.236;2023-02-15T00:50:59;1.20;;;1.20;;
10052;SDS011;52418;53.134;8.236;2023-02-15T00:53:26;1.20;;;1.20;;
10052;SDS011;52418;53.134;8.236;2023-02-15T00:55:51;1.20;;;1.20;;
10052;SDS011;52418;53.134;8.236;2023-02-15T00:58:16;1.17;;;1.17;;
10052;SDS011;52418;53.134;8.236;2023-02-15T01:00:43;1.20;;;1.20;;
10052;SDS011;52418;53.134;8.236;2023-02-15T01:03:08;1.20;;;1.20;;
10052;SDS011;52418;53.134;8.236;2023-02-15T01:05:33;1.27;;;1.27;;
10052;SDS011;52418;53.134;8.236;2023-02-15T01:07:59;1.20;;;1.20;;
10052;SDS011;52418;53.134;8.236;2023-02-15T01:10:24;1.37;;;1.33;;
10052;SDS011;52418;53.134;8.236;2023-02-15T01:12:50;1.30;;;1.30;;
10052;SDS011;52418;53.134;8.236;2023-02-15T01:15:15;1.20;;;1.20;;
10052;SDS011;52418;53.134;8.236;2023-02-15T01:17:41;1.20;;;1.20;;
10052;SDS011;52418;53.134;8.236;2023-02-15T01:20:06;1.20;;;1.20;;
10052;SDS011;52418;53.134;8.236;2023-02-15T01:22:32;1.30;;;1.30;;
10052;SDS011;52418;53.134;8.236;2023-02-15T01:24:57;1.30;;;1.30;;
10052;SDS011;52418;53.134;8.236;2023-02-15T01:27:22;1.23;;;1.23;;
10052;SDS011;52418;53.134;8.236;2023-02-15T01:29:47;1.30;;;1.30;;
10052;SDS011;52418;53.134;8.236;2023-02-15T01:32:12;1.20;;;1.20;;
10052;SDS011;52418;53.134;8.236;2023-02-15T01:34:38;1.30;;;1.30;;
10052;SDS011;52418;53.134;8.236;2023-02-15T01:37:03;1.30;;;1.30;;
10052;SDS011;52418;53.134;8.236;2023-02-15T01:39:28;1.20;;;1.20;;
10052;SDS011;52418;53.134;8.236;2023-02-15T01:41:53;1.50;;;1.40;;
10052;SDS011;52418;53.134;8.236;2023-02-15T01:47:03;1.20;;;1.20;;
10052;SDS011;52418;53.134;8.236;2023-02-15T01:49:31;1.20;;;1.20;;
10052;SDS011;52418;53.134;8.236;2023-02-15T01:51:58;1.27;;;1.27;;
10052;SDS011;52418;53.134;8.236;2023-02-15T01:54:25;1.17;;;1.17;;
10052;SDS011;52418;53.134;8.236;2023-02-15T01:56:52;1.20;;;1.20;;
10052;SDS011;52418;53.134;8.236;2023-02-15T01:59:19;1.23;;;1.23;;
10052;SDS011;52418;53.134;8.236;2023-02-15T02:01:45;1.20;;;1.20;;
10052;SDS011;52418;53.134;8.236;2023-02-15T02:04:13;1.20;;;1.20;;
10052;SDS011;52418;53.134;8.236;2023-02-15T02:06:40;1.30;;;1.30;;
10052;SDS011;52418;53.134;8.236;2023-02-15T02:09:05;1.20;;;1.20;;
10052;SDS011;52418;53.134;8.236;2023-02-15T02:11:30;1.30;;;1.30;;
10052;SDS011;52418;53.134;8.236;2023-02-15T02:13:56;1.30;;;1.30;;
10052;SDS011;52418;53.134;8.236;2023-02-15T02:16:24;1.30;;;1.30;;
10052;SDS011;52418;53.134;8.236;2023-02-15T02:18:57;1.30;;;1.30;;
10052;SDS011;52418;53.134;8.236;2023-02-15T02:50:02;1.27;;;1.27;;
10052;SDS011;52418;53.134;8.236;2023-02-15T02:52:46;1.20;;;1.20;;
10052;SDS011;52418;53.134;8.236;2023-02-15T02:57:48;1.20;;;1.20;;
10052;SDS011;52418;53.134;8.236;2023-02-15T03:00:15;1.20;;;1.20;;
10052;SDS011;52418;53.134;8.236;2023-02-15T03:02:42;1.20;;;1.20;;
10052;SDS011;52418;53.134;8.236;2023-02-15T03:05:10;1.10;;;1.10;;
10052;SDS011;52418;53.134;8.236;2023-02-15T03:07:36;1.27;;;1.27;;
10052;SDS011;52418;53.134;8.236;2023-02-15T03:10:02;1.20;;;1.20;;
10052;SDS011;52418;53.134;8.236;2023-02-15T03:12:35;1.10;;;1.10;;
10052;SDS011;52418;53.134;8.236;2023-02-15T03:15:03;1.10;;;1.10;;
10052;SDS011;52418;53.134;8.236;2023-02-15T03:17:30;1.10;;;1.10;;
10052;SDS011;52418;53.134;8.236;2023-02-15T03:19:57;1.20;;;1.20;;
10052;SDS011;52418;53.134;8.236;2023-02-15T03:22:25;1.20;;;1.20;;
10052;SDS011;52418;53.134;8.236;2023-02-15T03:24:56;1.10;;;1.10;;
10052;SDS011;52418;53.134;8.236;2023-02-15T03:27:26;1.20;;;1.20;;
10052;SDS011;52418;53.134;8.236;2023-02-15T03:29:53;1.03;;;1.03;;
10052;SDS011;52418;53.134;8.236;2023-02-15T03:32:20;1.17;;;1.17;;
10052;SDS011;52418;53.134;8.236;2023-02-15T03:34:45;1.10;;;1.10;;
10052;SDS011;52418;53.134;8.236;2023-02-15T03:39:51;1.20;;;1.20;;
10052;SDS011;52418;53.134;8.236;2023-02-15T03:44:59;1.17;;;1.17;;
10052;SDS011;52418;53.134;8.236;2023-02-15T03:47:30;1.20;;;1.20;;
10052;SDS011;52418;53.134;8.236;2023-02-15T03:50:00;1.10;;;1.10;;
10052;SDS011;52418;53.134;8.236;2023-02-15T03:52:27;1.30;;;1.30;;
10052;SDS011;52418;53.134;8.236;2023-02-15T03:54:53;1.10;;;1.10;;
10052;SDS011;52418;53.134;8.236;2023-02-15T03:57:20;1.10;;;1.10;;
10052;SDS011;52418;53.134;8.236;2023-02-15T04:00:25;1.10;;;1.10;;
10052;SDS011;52418;53.134;8.236;2023-02-15T04:05:40;1.10;;;1.10;;
10052;SDS011;52418;53.134;8.236;2023-02-15T04:08:06;1.10;;;1.10;;
10052;SDS011;52418;53.134;8.236;2023-02-15T04:10:31;1.17;;;1.17;;
10052;SDS011;52418;53.134;8.236;2023-02-15T04:13:15;1.10;;;1.10;;
10052;SDS011;52418;53.134;8.236;2023-02-15T04:15:40;1.10;;;1.10;;
10052;SDS011;52418;53.134;8.236;2023-02-15T04:18:24;1.10;;;1.10;;
10052;SDS011;52418;53.134;8.236;2023-02-15T04:21:07;1.20;;;1.20;;
10052;SDS011;52418;53.134;8.236;2023-02-15T04:23:51;1.10;;;1.10;;
10052;SDS011;52418;53.134;8.236;2023-02-15T04:26:35;1.07;;;1.07;;
10052;SDS011;52418;53.134;8.236;2023-02-15T04:29:01;1.10;;;1.10;;
10052;SDS011;52418;53.134;8.236;2023-02-15T04:31:26;1.10;;;1.10;;
10052;SDS011;52418;53.134;8.236;2023-02-15T04:33:51;1.10;;;1.10;;
10052;SDS011;52418;53.134;8.236;2023-02-15T04:36:16;1.20;;;1.20;;
10052;SDS011;52418;53.134;8.236;2023-02-15T04:38:41;1.10;;;1.10;;
10052;SDS011;52418;53.134;8.236;2023-02-15T04:41:06;1.10;;;1.10;;
10052;SDS011;52418;53.134;8.236;2023-02-15T04:43:32;1.13;;;1.13;;
10052;SDS011;52418;53.134;8.236;2023-02-15T04:45:57;1.10;;;1.10;;
10052;SDS011;52418;53.134;8.236;2023-02-15T04:48:23;1.20;;;1.20;;
10052;SDS011;52418;53.134;8.236;2023-02-15T04:50:48;1.20;;;1.20;;
10052;SDS011;52418;53.134;8.236;2023-02-15T04:53:14;1.10;;;1.10;;
10052;SDS011;52418;53.134;8.236;2023-02-15T04:55:41;1.10;;;1.10;;
10052;SDS011;52418;53.134;8.236;2023-02-15T04:58:06;1.20;;;1.20;;
10052;SDS011;52418;53.134;8.236;2023-02-15T05:00:31;1.20;;;1.20;;
10052;SDS011;52418;53.134;8.236;2023-02-15T05:02:57;1.17;;;1.17;;
10052;SDS011;52418;53.134;8.236;2023-02-15T05:05:22;1.20;;;1.20;;
10052;SDS011;52418;53.134;8.236;2023-02-15T05:07:47;1.20;;;1.20;;
10052;SDS011;52418;53.134;8.236;2023-02-15T05:10:12;1.20;;;1.20;;
10052;SDS011;52418;53.134;8.236;2023-02-15T05:12:37;1.20;;;1.20;;
10052;SDS011;52418;53.134;8.236;2023-02-15T05:15:03;1.10;;;1.10;;
10052;SDS011;52418;53.134;8.236;2023-02-15T05:17:28;1.20;;;1.20;;
10052;SDS011;52418;53.134;8.236;2023-02-15T05:19:53;1.23;;;1.23;;
10052;SDS011;52418;53.134;8.236;2023-02-15T05:22:18;1.20;;;1.20;;
10052;SDS011;52418;53.134;8.236;2023-02-15T05:24:43;1.17;;;1.17;;
10052;SDS011;52418;53.134;8.236;2023-02-15T05:27:27;1.17;;;1.17;;
10052;SDS011;52418;53.134;8.236;2023-02-15T05:30:15;1.10;;;1.10;;
10052;SDS011;52418;53.134;8.236;2023-02-15T05:32:40;1.30;;;1.30;;
10052;SDS011;52418;53.134;8.236;2023-02-15T05:35:06;1.10;;;1.10;;
10052;SDS011;52418;53.134;8.236;2023-02-15T05:37:31;1.27;;;1.27;;
10052;SDS011;52418;53.134;8.236;2023-02-15T05:39:57;1.20;;;1.20;;
10052;SDS011;52418;53.134;8.236;2023-02-15T05:42:22;1.20;;;1.20;;
10052;SDS011;52418;53.134;8.236;2023-02-15T05:44:47;1.30;;;1.30;;
10052;SDS011;52418;53.134;8.236;2023-02-15T05:47:12;1.30;;;1.30;;
10052;SDS011;52418;53.134;8.236;2023-02-15T05:49:37;1.20;;;1.20;;
10052;SDS011;52418;53.134;8.236;2023-02-15T05:52:03;1.20;;;1.20;;
10052;SDS011;52418;53.134;8.236;2023-02-15T05:54:28;1.30;;;1.30;;
10052;SDS011;52418;53.134;8.236;2023-02-15T05:56:53;1.20;;;1.20;;
10052;SDS011;52418;53.134;8.236;2023-02-15T05:59:19;1.37;;;1.37;;
10052;SDS011;52418;53.134;8.236;2023-02-15T06:01:44;1.30;;;1.30;;
10052;SDS011;52418;53.134;8.236;2023-02-15T06:04:09;1.20;;;1.20;;
10052;SDS011;52418;53.134;8.236;2023-02-15T06:06:34;1.20;;;1.20;;
10052;SDS011;52418;53.134;8.236;2023-02-15T06:08:59;1.10;;;1.10;;
10052;SDS011;52418;53.134;8.236;2023-02-15T06:11:25;1.10;;;1.10;;
10052;SDS011;52418;53.134;8.236;2023-02-15T06:13:50;1.20;;;1.20;;
10052;SDS011;52418;53.134;8.236;2023-02-15T06:16:15;1.20;;;1.20;;
10052;SDS011;52418;53.134;8.236;2023-02-15T06:18:41;1.20;;;1.20;;
10052;SDS011;52418;53.134;8.236;2023-02-15T06:21:06;1.20;;;1.20;;
10052;SDS011;52418;53.134;8.236;2023-02-15T06:23:33;1.20;;;1.20;;
10052;SDS011;52418;53.134;8.236;2023-02-15T06:25:58;1.20;;;1.20;;
10052;SDS011;52418;53.134;8.236;2023-02-15T06:28:23;1.30;;;1.30;;
10052;SDS011;52418;53.134;8.236;2023-02-15T06:30:50;1.20;;;1.20;;
10052;SDS011;52418;53.134;8.236;2023-02-15T06:33:15;1.20;;;1.20;;
10052;SDS011;52418;53.134;8.236;2023-02-15T06:35:40;1.20;;;1.20;;
10052;SDS011;52418;53.134;8.236;2023-02-15T06:38:06;1.10;;;1.10;;
10052;SDS011;52418;53.134;8.236;2023-02-15T06:40:31;1.10;;;1.10;;
10052;SDS011;52418;53.134;8.236;2023-02-15T06:42:56;1.20;;;1.20;;
10052;SDS011;52418;53.134;8.236;2023-02-15T06:45:21;1.20;;;1.20;;
10052;SDS011;52418;53.134;8.236;2023-02-15T06:47:46;1.10;;;1.10;;
10052;SDS011;52418;53.134;8.236;2023-02-15T06:50:12;1.10;;;1.10;;
10052;SDS011;52418;53.134;8.236;2023-02-15T06:52:38;1.10;;;1.10;;
10052;SDS011;52418;53.134;8.236;2023-02-15T06:55:03;1.10;;;1.10;;
10052;SDS011;52418;53.134;8.236;2023-02-15T06:57:28;1.10;;;1.10;;
10052;SDS011;52418;53.134;8.236;2023-02-15T06:59:53;1.10;;;1.10;;
10052;SDS011;52418;53.134;8.236;2023-02-15T07:02:19;1.10;;;1.10;;
10052;SDS011;52418;53.134;8.236;2023-02-15T07:04:45;1.10;;;1.10;;
10052;SDS011;52418;53.134;8.236;2023-02-15T07:07:10;1.00;;;1.00;;
10052;SDS011;52418;53.134;8.236;2023-02-15T07:09:36;1.00;;;1.00;;
10052;SDS011;52418;53.134;8.236;2023-02-15T07:12:01;1.00;;;1.00;;
10052;SDS011;52418;53.134;8.236;2023-02-15T07:14:45;1.07;;;1.07;;
10052;SDS011;52418;53.134;8.236;2023-02-15T07:17:10;1.00;;;1.00;;
10052;SDS011;52418;53.134;8.236;2023-02-15T07:19:35;1.17;;;1.17;;
10052;SDS011;52418;53.134;8.236;2023-02-15T07:22:00;1.10;;;1.10;;
10052;SDS011;52418;53.134;8.236;2023-02-15T07:24:26;1.10;;;1.10;;
10052;SDS011;52418;53.134;8.236;2023-02-15T07:26:51;1.00;;;1.00;;
10052;SDS011;52418;53.134;8.236;2023-02-15T07:29:16;1.13;;;1.13;;
10052;SDS011;52418;53.134;8.236;2023-02-15T07:31:41;1.03;;;1.03;;
10052;SDS011;52418;53.134;8.236;2023-02-15T07:34:10;1.07;;;1.07;;
10052;SDS011;52418;53.134;8.236;2023-02-15T07:36:35;1.00;;;1.00;;
10052;SDS011;52418;53.134;8.236;2023-02-15T07:39:00;1.00;;;1.00;;
10052;SDS011;52418;53.134;8.236;2023-02-15T07:41:26;1.03;;;1.03;;
10052;SDS011;52418;53.134;8.236;2023-02-15T07:43:51;1.10;;;1.10;;
10052;SDS011;52418;53.134;8.236;2023-02-15T07:46:16;1.20;;;1.20;;
10052;SDS011;52418;53.134;8.236;2023-02-15T07:48:43;1.00;;;1.00;;
10052;SDS011;52418;53.134;8.236;2023-02-15T07:51:09;1.00;;;1.00;;
10052;SDS011;52418;53.134;8.236;2023-02-15T07:53:34;1.00;;;1.00;;
10052;SDS011;52418;53.134;8.236;2023-02-15T07:56:00;1.10;;;1.10;;
10052;SDS011;52418;53.134;8.236;2023-02-15T07:58:26;1.10;;;1.10;;
10052;SDS011;52418;53.134;8.236;2023-02-15T08:01:11;1.00;;;1.00;;
10052;SDS011;52418;53.134;8.236;2023-02-15T08:03:36;1.10;;;1.10;;
10052;SDS011;52418;53.134;8.236;2023-02-15T08:06:01;1.10;;;1.10;;
10052;SDS011;52418;53.134;8.236;2023-02-15T08:08:27;1.00;;;1.00;;
10052;SDS011;52418;53.134;8.236;2023-02-15T08:10:58;1.00;;;1.00;;
10052;SDS011;52418;53.134;8.236;2023-02-15T08:13:43;1.10;;;1.10;;
10052;SDS011;52418;53.134;8.236;2023-02-15T08:16:18;1.03;;;1.03;;
10052;SDS011;52418;53.134;8.236;2023-02-15T08:18:43;1.20;;;1.20;;
10052;SDS011;52418;53.134;8.236;2023-02-15T08:21:09;1.10;;;1.10;;
10052;SDS011;52418;53.134;8.236;2023-02-15T08:23:34;1.20;;;1.20;;
10052;SDS011;52418;53.134;8.236;2023-02-15T08:25:59;1.10;;;1.10;;
10052;SDS011;52418;53.134;8.236;2023-02-15T08:28:24;1.10;;;1.10;;
10052;SDS011;52418;53.134;8.236;2023-02-15T08:30:49;1.10;;;1.10;;
10052;SDS011;52418;53.134;8.236;2023-02-15T08:33:15;1.10;;;1.10;;
10052;SDS011;52418;53.134;8.236;2023-02-15T08:35:42;1.20;;;1.20;;
10052;SDS011;52418;53.134;8.236;2023-02-15T08:38:07;1.10;;;1.10;;
10052;SDS011;52418;53.134;8.236;2023-02-15T08:40:33;1.10;;;1.10;;
10052;SDS011;52418;53.134;8.236;2023-02-15T08:42:59;1.17;;;1.17;;
10052;SDS011;52418;53.134;8.236;2023-02-15T08:45:24;1.17;;;1.17;;
10052;SDS011;52418;53.134;8.236;2023-02-15T08:47:50;1.00;;;1.00;;
10052;SDS011;52418;53.134;8.236;2023-02-15T08:50:15;1.10;;;1.10;;
10052;SDS011;52418;53.134;8.236;2023-02-15T08:52:40;1.20;;;1.20;;
10052;SDS011;52418;53.134;8.236;2023-02-15T08:55:05;1.20;;;1.20;;
10052;SDS011;52418;53.134;8.236;2023-02-15T08:57:31;1.10;;;1.10;;
10052;SDS011;52418;53.134;8.236;2023-02-15T08:59:56;1.20;;;1.20;;
10052;SDS011;52418;53.134;8.236;2023-02-15T09:02:21;1.10;;;1.10;;
10052;SDS011;52418;53.134;8.236;2023-02-15T09:04:46;1.60;;;1.50;;
10052;SDS011;52418;53.134;8.236;2023-02-15T09:07:11;1.20;;;1.20;;
10052;SDS011;52418;53.134;8.236;2023-02-15T09:09:37;1.20;;;1.20;;
10052;SDS011;52418;53.134;8.236;2023-02-15T09:12:03;1.20;;;1.20;;
10052;SDS011;52418;53.134;8.236;2023-02-15T09:14:29;1.10;;;1.10;;
10052;SDS011;52418;53.134;8.236;2023-02-15T09:16:54;1.20;;;1.20;;
10052;SDS011;52418;53.134;8.236;2023-02-15T09:19:20;1.20;;;1.20;;
10052;SDS011;52418;53.134;8.236;2023-02-15T09:21:45;1.20;;;1.20;;
10052;SDS011;52418;53.134;8.236;2023-02-15T09:24:12;1.30;;;1.30;;
10052;SDS011;52418;53.134;8.236;2023-02-15T09:26:39;1.30;;;1.30;;
10052;SDS011;52418;53.134;8.236;2023-02-15T09:29:08;1.30;;;1.30;;
10052;SDS011;52418;53.134;8.236;2023-02-15T09:31:37;1.50;;;1.40;;
10052;SDS011;52418;53.134;8.236;2023-02-15T09:34:02;1.50;;;1.40;;
10052;SDS011;52418;53.134;8.236;2023-02-15T09:36:32;1.50;;;1.40;;
10052;SDS011;52418;53.134;8.236;2023-02-15T09:38:58;1.50;;;1.40;;
10052;SDS011;52418;53.134;8.236;2023-02-15T09:44:14;1.50;;;1.40;;
10052;SDS011;52418;53.134;8.236;2023-02-15T09:51:54;1.30;;;1.30;;
10052;SDS011;52418;53.134;8.236;2023-02-15T09:54:31;1.30;;;1.30;;
10052;SDS011;52418;53.134;8.236;2023-02-15T09:57:00;1.50;;;1.40;;
10052;SDS011;52418;53.134;8.236;2023-02-15T10:02:34;1.20;;;1.20;;
10052;SDS011;52418;53.134;8.236;2023-02-15T10:07:51;1.20;;;1.20;;
10052;SDS011;52418;53.134;8.236;2023-02-15T10:20:40;1.20;;;1.20;;
10052;SDS011;52418;53.134;8.236;2023-02-15T10:28:17;1.43;;;1.33;;
10052;SDS011;52418;53.134;8.236;2023-02-15T10:30:46;1.40;;;1.40;;
10052;SDS011;52418;53.134;8.236;2023-02-15T10:43:35;1.30;;;1.30;;
10052;SDS011;52418;53.134;8.236;2023-02-15T10:54:28;1.30;;;1.30;;
10052;SDS011;52418;53.134;8.236;2023-02-15T10:57:02;1.50;;;1.40;;
10052;SDS011;52418;53.134;8.236;2023-02-15T11:07:39;1.20;;;1.20;;
10052;SDS011;52418;53.134;8.236;2023-02-15T11:10:11;1.20;;;1.20;;
10052;SDS011;52418;53.134;8.236;2023-02-15T11:12:38;1.23;;;1.23;;
10052;SDS011;52418;53.134;8.236;2023-02-15T11:15:10;1.37;;;1.33;;
10052;SDS011;52418;53.134;8.236;2023-02-15T11:17:43;1.20;;;1.20;;
10052;SDS011;52418;53.134;8.236;2023-02-15T11:22:41;1.10;;;1.10;;
10052;SDS011;52418;53.134;8.236;2023-02-15T11:25:15;1.10;;;1.10;;
10052;SDS011;52418;53.134;8.236;2023-02-15T11:27:42;1.20;;;1.20;;
10052;SDS011;52418;53.134;8.236;2023-02-15T11:30:15;1.20;;;1.20;;
10052;SDS011;52418;53.134;8.236;2023-02-15T11:32:40;1.20;;;1.20;;
10052;SDS011;52418;53.134;8.236;2023-02-15T11:37:40;1.20;;;1.20;;
10052;SDS011;52418;53.134;8.236;2023-02-15T11:40:20;1.30;;;1.30;;
10052;SDS011;52418;53.134;8.236;2023-02-15T11:42:47;1.27;;;1.27;;
10052;SDS011;52418;53.134;8.236;2023-02-15T11:45:28;1.30;;;1.30;;
10052;SDS011;52418;53.134;8.236;2023-02-15T11:47:54;1.30;;;1.30;;
10052;SDS011;52418;53.134;8.236;2023-02-15T11:50:23;1.20;;;1.20;;
10052;SDS011;52418;53.134;8.236;2023-02-15T11:52:56;1.50;;;1.40;;
10052;SDS011;52418;53.134;8.236;2023-02-15T11:55:23;1.43;;;1.40;;
10052;SDS011;52418;53.134;8.236;2023-02-15T11:58:00;1.50;;;1.40;;
10052;SDS011;52418;53.134;8.236;2023-02-15T12:00:34;1.30;;;1.30;;
10052;SDS011;52418;53.134;8.236;2023-02-15T12:03:02;1.30;;;1.30;;
10052;SDS011;52418;53.134;8.236;2023-02-15T12:05:28;1.50;;;1.40;;
10052;SDS011;52418;53.134;8.236;2023-02-15T12:07:55;1.30;;;1.30;;
10052;SDS011;52418;53.134;8.236;2023-02-15T12:10:23;1.30;;;1.30;;
10052;SDS011;52418;53.134;8.236;2023-02-15T12:12:54;1.30;;;1.30;;
10052;SDS011;52418;53.134;8.236;2023-02-15T12:15:33;1.30;;;1.30;;
10052;SDS011;52418;53.134;8.236;2023-02-15T12:18:00;1.10;;;1.10;;
10052;SDS011;52418;53.134;8.236;2023-02-15T12:20:28;1.50;;;1.40;;
10052;SDS011;52418;53.134;8.236;2023-02-15T12:22:58;1.50;;;1.40;;
10052;SDS011;52418;53.134;8.236;2023-02-15T12:25:35;1.20;;;1.20;;
10052;SDS011;52418;53.134;8.236;2023-02-15T12:28:02;1.20;;;1.20;;
10052;SDS011;52418;53.134;8.236;2023-02-15T12:30:31;1.20;;;1.20;;
10052;SDS011;52418;53.134;8.236;2023-02-15T12:32:58;1.30;;;1.30;;
10052;SDS011;52418;53.134;8.236;2023-02-15T12:35:29;1.30;;;1.30;;
10052;SDS011;52418;53.134;8.236;2023-02-15T12:38:00;1.30;;;1.30;;
10052;SDS011;52418;53.134;8.236;2023-02-15T12:40:27;1.20;;;1.20;;
10052;SDS011;52418;53.134;8.236;2023-02-15T12:42:53;1.30;;;1.30;;
10052;SDS011;52418;53.134;8.236;2023-02-15T12:45:32;1.30;;;1.30;;
10052;SDS011;52418;53.134;8.236;2023-02-15T12:48:08;1.30;;;1.30;;
10052;SDS011;52418;53.134;8.236;2023-02-15T12:50:34;1.30;;;1.30;;
10052;SDS011;52418;53.134;8.236;2023-02-15T12:53:07;1.60;;;1.50;;
10052;SDS011;52418;53.134;8.236;2023-02-15T12:55:32;1.30;;;1.30;;
10052;SDS011;52418;53.134;8.236;2023-02-15T12:58:17;1.20;;;1.20;;
10052;SDS011;52418;53.134;8.236;2023-02-15T13:00:43;1.50;;;1.40;;
10052;SDS011;52418;53.134;8.236;2023-02-15T13:03:15;1.50;;;1.40;;
10052;SDS011;52418;53.134;8.236;2023-02-15T13:05:42;1.40;;;1.37;;
10052;SDS011;52418;53.134;8.236;2023-02-15T13:10:39;1.50;;;1.40;;
10052;SDS011;52418;53.134;8.236;2023-02-15T13:13:09;1.33;;;1.33;;
10052;SDS011;52418;53.134;8.236;2023-02-15T13:15:41;1.50;;;1.40;;
10052;SDS011;52418;53.134;8.236;2023-02-15T13:18:11;1.30;;;1.30;;
10052;SDS011;52418;53.134;8.236;2023-02-15T13:20:37;1.50;;;1.40;;
10052;SDS011;52418;53.134;8.236;2023-02-15T13:23:06;1.43;;;1.33;;
10052;SDS011;52418;53.134;8.236;2023-02-15T13:25:37;1.30;;;1.30;;
10052;SDS011;52418;53.134;8.236;2023-02-15T13:28:07;1.40;;;1.30;;
10052;SDS011;52418;53.134;8.236;2023-02-15T13:30:38;1.20;;;1.20;;
10052;SDS011;52418;53.134;8.236;2023-02-15T13:33:19;1.20;;;1.20;;
10052;SDS011;52418;53.134;8.236;2023-02-15T13:38:19;1.30;;;1.30;;
10052;SDS011;52418;53.134;8.236;2023-02-15T13:40:55;1.00;;;1.00;;
10052;SDS011;52418;53.134;8.236;2023-02-15T13:43:35;1.10;;;1.10;;
10052;SDS011;52418;53.134;8.236;2023-02-15T13:48:35;1.20;;;1.20;;
10052;SDS011;52418;53.134;8.236;2023-02-15T13:51:06;1.20;;;1.20;;
10052;SDS011;52418;53.134;8.236;2023-02-15T13:58:58;1.20;;;1.20;;
10052;SDS011;52418;53.134;8.236;2023-02-15T14:09:01;1.30;;;1.30;;
10052;SDS011;52418;53.134;8.236;2023-02-15T14:14:15;1.20;;;1.20;;
10052;SDS011;52418;53.134;8.236;2023-02-15T14:19:19;1.30;;;1.30;;
10052;SDS011;52418;53.134;8.236;2023-02-15T14:21:49;1.20;;;1.20;;
10052;SDS011;52418;53.134;8.236;2023-02-15T14:24:22;1.30;;;1.30;;
10052;SDS011;52418;53.134;8.236;2023-02-15T14:26:51;1.40;;;1.30;;
10052;SDS011;52418;53.134;8.236;2023-02-15T14:29:20;1.50;;;1.40;;
10052;SDS011;52418;53.134;8.236;2023-02-15T14:31:49;1.27;;;1.27;;
10052;SDS011;52418;53.134;8.236;2023-02-15T14:34:23;1.50;;;1.40;;
10052;SDS011;52418;53.134;8.236;2023-02-15T14:36:50;1.30;;;1.30;;
10052;SDS011;52418;53.134;8.236;2023-02-15T14:42:02;1.30;;;1.30;;
10052;SDS011;52418;53.134;8.236;2023-02-15T14:44:34;1.20;;;1.20;;
10052;SDS011;52418;53.134;8.236;2023-02-15T14:47:07;1.10;;;1.10;;
10052;SDS011;52418;53.134;8.236;2023-02-15T14:49:36;1.30;;;1.30;;
10052;SDS011;52418;53.134;8.236;2023-02-15T14:52:06;1.23;;;1.23;;
10052;SDS011;52418;53.134;8.236;2023-02-15T15:07:02;1.20;;;1.20;;
10052;SDS011;52418;53.134;8.236;2023-02-15T15:09:29;1.20;;;1.20;;
10052;SDS011;52418;53.134;8.236;2023-02-15T15:11:55;1.20;;;1.20;;
10052;SDS011;52418;53.134;8.236;2023-02-15T15:14:37;1.30;;;1.30;;
10052;SDS011;52418;53.134;8.236;2023-02-15T15:17:03;1.17;;;1.17;;
10052;SDS011;52418;53.134;8.236;2023-02-15T15:22:17;1.10;;;1.10;;
10052;SDS011;52418;53.134;8.236;2023-02-15T15:29:52;1.10;;;1.10;;
10052;SDS011;52418;53.134;8.236;2023-02-15T15:32:19;1.10;;;1.10;;
10052;SDS011;52418;53.134;8.236;2023-02-15T15:37:41;1.20;;;1.20;;
10052;SDS011;52418;53.134;8.236;2023-02-15T15:40:33;1.10;;;1.10;;
10052;SDS011;52418;53.134;8.236;2023-02-15T15:43:30;1.20;;;1.20;;
10052;SDS011;52418;53.134;8.236;2023-02-15T15:48:40;1.23;;;1.23;;
10052;SDS011;52418;53.134;8.236;2023-02-15T15:51:06;1.10;;;1.10;;
10052;SDS011;52418;53.134;8.236;2023-02-15T15:53:38;1.10;;;1.10;;
10052;SDS011;52418;53.134;8.236;2023-02-15T15:56:06;1.10;;;1.10;;
10052;SDS011;52418;53.134;8.236;2023-02-15T15:58:33;1.10;;;1.10;;
10052;SDS011;52418;53.134;8.236;2023-02-15T16:01:08;1.20;;;1.20;;
10052;SDS011;52418;53.134;8.236;2023-02-15T16:03:34;1.00;;;1.00;;
10052;SDS011;52418;53.134;8.236;2023-02-15T16:05:59;1.10;;;1.10;;
10052;SDS011;52418;53.134;8.236;2023-02-15T16:08:33;1.10;;;1.10;;
10052;SDS011;52418;53.134;8.236;2023-02-15T16:10:58;1.00;;;1.00;;
10052;SDS011;52418;53.134;8.236;2023-02-15T16:13:24;1.00;;;1.00;;
10052;SDS011;52418;53.134;8.236;2023-02-15T16:15:51;1.10;;;1.10;;
10052;SDS011;52418;53.134;8.236;2023-02-15T16:18:19;1.10;;;1.10;;
10052;SDS011;52418;53.134;8.236;2023-02-15T16:20:54;1.10;;;1.10;;
10052;SDS011;52418;53.134;8.236;2023-02-15T16:28:31;1.00;;;1.00;;
10052;SDS011;52418;53.134;8.236;2023-02-15T16:31:06;1.10;;;1.10;;
10052;SDS011;52418;53.134;8.236;2023-02-15T16:33:36;1.10;;;1.10;;
10052;SDS011;52418;53.134;8.236;2023-02-15T16:36:02;1.20;;;1.20;;
10052;SDS011;52418;53.134;8.236;2023-02-15T16:41:03;1.20;;;1.20;;
10052;SDS011;52418;53.134;8.236;2023-02-15T16:43:29;1.10;;;1.10;;
10052;SDS011;52418;53.134;8.236;2023-02-15T16:46:03;1.00;;;1.00;;
10052;SDS011;52418;53.134;8.236;2023-02-15T16:48:29;1.10;;;1.10;;
10052;SDS011;52418;53.134;8.236;2023-02-15T16:50:55;1.10;;;1.10;;
10052;SDS011;52418;53.134;8.236;2023-02-15T16:53:23;1.10;;;1.10;;
10052;SDS011;52418;53.134;8.236;2023-02-15T16:55:50;1.10;;;1.10;;
10052;SDS011;52418;53.134;8.236;2023-02-15T16:58:16;1.10;;;1.10;;
10052;SDS011;52418;53.134;8.236;2023-02-15T17:00:41;1.17;;;1.17;;
10052;SDS011;52418;53.134;8.236;2023-02-15T17:05:50;1.20;;;1.20;;
10052;SDS011;52418;53.134;8.236;2023-02-15T17:08:40;1.10;;;1.10;;
10052;SDS011;52418;53.134;8.236;2023-02-15T17:13:38;1.10;;;1.10;;
10052;SDS011;52418;53.134;8.236;2023-02-15T17:18:32;1.20;;;1.20;;
10052;SDS011;52418;53.134;8.236;2023-02-15T17:20:59;1.10;;;1.10;;
10052;SDS011;52418;53.134;8.236;2023-02-15T17:25:50;1.10;;;1.10;;
10052;SDS011;52418;53.134;8.236;2023-02-15T17:28:17;1.20;;;1.20;;
10052;SDS011;52418;53.134;8.236;2023-02-15T17:30:43;1.30;;;1.30;;
10052;SDS011;52418;53.134;8.236;2023-02-15T17:33:44;1.10;;;1.10;;
10052;SDS011;52418;53.134;8.236;2023-02-15T17:36:17;1.20;;;1.20;;
10052;SDS011;52418;53.134;8.236;2023-02-15T17:39:18;1.10;;;1.10;;
10052;SDS011;52418;53.134;8.236;2023-02-15T17:41:33;1.10;;;1.10;;
10052;SDS011;52418;53.134;8.236;2023-02-15T17:43:59;1.00;;;1.00;;
10052;SDS011;52418;53.134;8.236;2023-02-15T17:46:24;1.17;;;1.17;;
10052;SDS011;52418;53.134;8.236;2023-02-15T17:48:51;1.23;;;1.23;;
10052;SDS011;52418;53.134;8.236;2023-02-15T17:51:17;1.10;;;1.10;;
10052;SDS011;52418;53.134;8.236;2023-02-15T17:53:43;1.20;;;1.20;;